Time;durP1;ratioP1;P1;durP2;ratioP2;P2;SDS_P1;SDS_P2;PMS_P1;PMS_P2;Temp;Humidity;BMP_temperature;BMP_pressure;BME280_temperature;BME280_humidity;BME280_pressure;Samples;Min_cycle;Max_cycle;Signal;HPM_P1;HPM_P2
2023/03/03 00:00:51;;;;;;;35.50;15.70;;;;;;;4.59;100.00;97902.28;5100901;27;20046;-77
2023/03/03 00:03:19;;;;;;;36.40;15.43;;;;;;;4.55;100.00;97896.25;5107131;27;20110;-78
2023/03/03 00:05:44;;;;;;;33.58;15.73;;;;;;;4.50;100.00;97895.50;5129338;27;20019;-78
2023/03/03 00:08:10;;;;;;;33.05;15.40;;;;;;;4.50;100.00;97903.47;5115464;27;20075;-77
2023/03/03 00:10:36;;;;;;;37.97;16.65;;;;;;;4.52;100.00;97906.94;5132376;27;20062;-77
2023/03/03 00:13:02;;;;;;;39.72;16.50;;;;;;;4.59;100.00;97905.81;5108258;27;20031;-77
2023/03/03 00:15:28;;;;;;;34.78;16.20;;;;;;;4.44;100.00;97894.84;5122122;27;20132;-77
2023/03/03 00:17:54;;;;;;;35.95;15.88;;;;;;;4.48;100.00;97902.66;5097750;27;20034;-78
2023/03/03 00:20:38;;;;;;;39.63;16.25;;;;;;;4.52;100.00;97912.25;5123344;27;20482;-79
2023/03/03 00:23:23;;;;;;;38.08;16.25;;;;;;;4.52;100.00;97909.59;5131913;27;20031;-77
2023/03/03 00:25:53;;;;;;;40.70;17.00;;;;;;;4.53;100.00;97905.13;5114595;27;20110;-76
2023/03/03 00:28:30;;;;;;;37.42;16.13;;;;;;;4.45;100.00;97908.03;5110211;27;20023;-78
2023/03/03 00:30:58;;;;;;;42.00;16.88;;;;;;;4.52;100.00;97906.94;5125911;27;20060;-77
2023/03/03 00:33:33;;;;;;;38.00;16.35;;;;;;;4.48;100.00;97901.78;5114225;27;20026;-78
2023/03/03 00:36:37;;;;;;;41.83;17.20;;;;;;;4.46;100.00;97904.47;5132809;27;20033;-77
2023/03/03 00:39:33;;;;;;;37.65;16.08;;;;;;;4.46;100.00;97907.09;5100933;27;20064;-77
2023/03/03 00:41:59;;;;;;;36.85;16.33;;;;;;;4.53;100.00;97902.47;5120532;27;20053;-78
2023/03/03 00:44:36;;;;;;;49.58;18.15;;;;;;;4.49;100.00;97901.72;5109211;27;20106;-78
2023/03/03 00:47:18;;;;;;;44.42;16.95;;;;;;;4.50;100.00;97894.63;5116488;27;20475;-78
2023/03/03 00:49:43;;;;;;;46.28;17.27;;;;;;;4.44;100.00;97879.81;5114399;27;20041;-78
2023/03/03 00:52:15;;;;;;;47.17;19.33;;;;;;;4.51;100.00;97889.31;5146027;27;20537;-78
2023/03/03 00:54:41;;;;;;;53.92;19.73;;;;;;;4.54;100.00;97883.91;5105695;27;20027;-78
2023/03/03 00:57:07;;;;;;;43.25;17.02;;;;;;;4.56;100.00;97883.84;5131354;27;20083;-78
2023/03/03 00:59:32;;;;;;;36.47;16.40;;;;;;;4.58;100.00;97863.50;5110141;27;20038;-78
2023/03/03 01:01:58;;;;;;;41.85;17.27;;;;;;;4.57;100.00;97865.28;5097057;27;20037;-79
2023/03/03 01:04:23;;;;;;;36.78;15.15;;;;;;;4.62;100.00;97868.63;5103002;27;20027;-78
2023/03/03 01:06:49;;;;;;;38.63;15.25;;;;;;;4.57;100.00;97854.69;5122590;27;20478;-78
2023/03/03 01:09:14;;;;;;;36.83;16.63;;;;;;;4.55;100.00;97859.16;5106984;27;20080;-78
2023/03/03 01:11:40;;;;;;;37.78;16.17;;;;;;;4.55;100.00;97851.22;5114369;27;20505;-78
2023/03/03 01:14:06;;;;;;;34.75;14.95;;;;;;;4.55;100.00;97843.28;5113982;27;20029;-78
2023/03/03 01:16:33;;;;;;;32.03;15.60;;;;;;;4.67;100.00;97855.22;5109022;27;20543;-78
2023/03/03 01:18:58;;;;;;;29.80;13.63;;;;;;;4.68;100.00;97852.53;5122393;27;20391;-78
2023/03/03 01:21:24;;;;;;;34.63;14.63;;;;;;;4.64;100.00;97842.97;5124558;27;20030;-78
2023/03/03 01:23:49;;;;;;;34.65;15.80;;;;;;;4.62;100.00;97828.88;5116432;27;20026;-77
2023/03/03 01:26:15;;;;;;;33.35;15.30;;;;;;;4.58;100.00;97835.22;5097517;27;20019;-78
2023/03/03 01:28:40;;;;;;;30.58;14.10;;;;;;;4.51;100.00;97825.75;5100916;28;20498;-78
2023/03/03 01:31:06;;;;;;;36.95;15.63;;;;;;;4.50;100.00;97831.94;5096816;27;20698;-78
2023/03/03 01:33:33;;;;;;;39.35;16.88;;;;;;;4.44;100.00;97826.00;5113731;27;20061;-78
2023/03/03 01:35:59;;;;;;;40.83;15.63;;;;;;;4.37;100.00;97825.31;5105024;28;20184;-78
2023/03/03 01:38:25;;;;;;;36.17;16.83;;;;;;;4.29;100.00;97828.25;5103470;28;20121;-78
2023/03/03 01:40:56;;;;;;;44.67;17.40;;;;;;;4.32;100.00;97825.50;5127348;28;20031;-78
2023/03/03 01:43:21;;;;;;;42.80;18.13;;;;;;;4.25;100.00;97820.44;5113478;28;20047;-78
2023/03/03 01:45:46;;;;;;;39.42;17.23;;;;;;;4.34;100.00;97830.72;5096513;28;20065;-77
2023/03/03 01:48:21;;;;;;;44.97;16.05;;;;;;;4.24;100.00;97826.66;5131642;27;20185;-78
2023/03/03 01:50:51;;;;;;;41.45;18.25;;;;;;;4.25;100.00;97844.25;5105125;28;20418;-78
2023/03/03 01:53:19;;;;;;;42.22;16.10;;;;;;;4.21;100.00;97832.06;5113319;28;20027;-78
2023/03/03 01:55:47;;;;;;;42.97;16.48;;;;;;;4.26;100.00;97824.81;5130443;27;20049;-78
2023/03/03 01:58:18;;;;;;;42.35;17.77;;;;;;;4.30;100.00;97845.88;5150522;27;20035;-78
2023/03/03 02:00:49;;;;;;;42.38;17.65;;;;;;;4.31;100.00;97830.81;5134863;27;20019;-78
2023/03/03 02:03:14;;;;;;;37.58;16.70;;;;;;;4.35;100.00;97848.34;5143905;27;20106;-78
2023/03/03 02:05:41;;;;;;;43.53;16.98;;;;;;;4.35;100.00;97848.34;5117575;27;20070;-77
2023/03/03 02:08:08;;;;;;;40.70;16.15;;;;;;;4.36;100.00;97847.44;5136106;27;20390;-78
2023/03/03 02:10:34;;;;;;;38.60;15.80;;;;;;;4.34;100.00;97836.88;5134502;27;20079;-78
2023/03/03 02:12:59;;;;;;;44.03;17.70;;;;;;;4.40;100.00;97846.41;5103194;27;20476;-78
2023/03/03 02:15:31;;;;;;;39.95;16.17;;;;;;;4.33;100.00;97836.94;5100557;27;20027;-78
2023/03/03 02:17:59;;;;;;;46.38;17.80;;;;;;;4.34;100.00;97836.00;5117680;27;20058;-78
2023/03/03 02:20:41;;;;;;;44.25;15.77;;;;;;;4.37;100.00;97846.50;5100970;27;20114;-78
2023/03/03 02:23:17;;;;;;;45.10;18.75;;;;;;;4.32;100.00;97837.84;5135725;27;20060;-78
2023/03/03 02:25:46;;;;;;;49.28;17.15;;;;;;;4.24;100.00;97839.91;5108671;27;20422;-79
2023/03/03 02:28:12;;;;;;;51.42;18.02;;;;;;;4.26;100.00;97843.34;5116941;27;20066;-78
2023/03/03 02:30:38;;;;;;;42.67;17.17;;;;;;;4.35;100.00;97838.63;5099892;27;20058;-78
2023/03/03 02:33:04;;;;;;;41.50;15.65;;;;;;;4.35;100.00;97835.97;5129249;27;20030;-78
2023/03/03 02:35:37;;;;;;;40.95;15.80;;;;;;;4.37;100.00;97841.22;5110011;27;20084;-78
2023/03/03 02:38:35;;;;;;;38.70;16.08;;;;;;;4.25;100.00;97844.25;5099914;27;20106;-78
2023/03/03 02:41:25;;;;;;;40.95;16.52;;;;;;;4.11;100.00;97839.41;5126903;27;20055;-79
2023/03/03 02:44:02;;;;;;;37.97;15.35;;;;;;;4.09;100.00;97835.94;5127608;27;20031;-79
2023/03/03 02:46:31;;;;;;;40.78;16.77;;;;;;;4.07;100.00;97836.91;5116924;27;20023;-79
2023/03/03 02:48:56;;;;;;;45.30;15.68;;;;;;;4.08;100.00;97849.22;5134023;27;20478;-79
2023/03/03 02:51:22;;;;;;;45.15;17.20;;;;;;;4.10;100.00;97848.25;5126555;27;20025;-78
2023/03/03 02:53:48;;;;;;;51.13;18.10;;;;;;;4.27;100.00;97855.69;5116508;27;20053;-78
2023/03/03 02:56:13;;;;;;;39.95;17.45;;;;;;;4.25;100.00;97854.84;5116713;27;20031;-78
2023/03/03 02:58:39;;;;;;;40.95;16.35;;;;;;;4.26;100.00;97846.00;5116415;27;20027;-78
2023/03/03 03:01:04;;;;;;;39.22;16.60;;;;;;;4.37;100.00;97851.78;5109691;27;20040;-79
2023/03/03 03:03:30;;;;;;;37.70;14.88;;;;;;;4.31;100.00;97844.94;5123404;27;20019;-78
2023/03/03 03:05:55;;;;;;;42.30;15.68;;;;;;;4.36;100.00;97842.16;5110202;27;20045;-78
2023/03/03 03:08:39;;;;;;;36.13;16.25;;;;;;;4.38;100.00;97845.59;5105752;27;20027;-77
2023/03/03 03:11:05;;;;;;;38.67;15.73;;;;;;;4.32;100.00;97848.44;5123105;27;20019;-78
2023/03/03 03:13:31;;;;;;;34.30;15.02;;;;;;;4.38;100.00;97842.94;5122826;27;20031;-78
2023/03/03 03:15:57;;;;;;;43.95;17.65;;;;;;;4.44;100.00;97847.16;5099443;27;20030;-78
2023/03/03 03:18:22;;;;;;;41.67;15.43;;;;;;;4.43;100.00;97841.00;5116177;27;20031;-78
2023/03/03 03:20:48;;;;;;;35.38;14.60;;;;;;;4.41;100.00;97828.75;5115051;27;20023;-77
2023/03/03 03:23:13;;;;;;;35.78;15.00;;;;;;;4.46;100.00;97840.91;5125895;27;20054;-77
2023/03/03 03:25:44;;;;;;;36.30;16.05;;;;;;;4.47;100.00;97831.19;5133576;27;20035;-78
2023/03/03 03:28:14;;;;;;;40.53;15.57;;;;;;;4.40;100.00;97827.88;5106850;27;20034;-78
2023/03/03 03:30:44;;;;;;;36.78;15.20;;;;;;;4.34;100.00;97826.28;5115802;27;20035;-79
2023/03/03 03:33:10;;;;;;;45.03;16.20;;;;;;;4.35;100.00;97820.09;5148776;27;20063;-77
2023/03/03 03:35:36;;;;;;;44.72;16.77;;;;;;;4.36;100.00;97821.84;5112553;27;20450;-79
2023/03/03 03:38:02;;;;;;;39.58;16.48;;;;;;;4.35;100.00;97824.50;5109126;27;20027;-78
2023/03/03 03:40:27;;;;;;;43.15;17.98;;;;;;;4.26;100.00;97816.88;5102866;27;20031;-78
2023/03/03 03:42:53;;;;;;;39.03;16.70;;;;;;;4.21;100.00;97811.75;5098426;27;20027;-78
2023/03/03 03:45:19;;;;;;;43.20;17.55;;;;;;;4.29;100.00;97828.25;5100309;27;20027;-79
2023/03/03 03:47:45;;;;;;;41.70;16.85;;;;;;;4.28;100.00;97820.31;5098290;27;20041;-79
2023/03/03 03:50:11;;;;;;;40.67;16.00;;;;;;;4.24;100.00;97818.72;5139957;27;20023;-79
2023/03/03 03:52:36;;;;;;;41.90;16.25;;;;;;;4.22;100.00;97823.16;5115290;27;20523;-79
2023/03/03 03:55:02;;;;;;;42.47;16.25;;;;;;;4.22;100.00;97816.09;5098545;27;20046;-79
2023/03/03 03:57:28;;;;;;;40.00;15.93;;;;;;;4.26;100.00;97820.41;5122500;27;20027;-79
2023/03/03 03:59:53;;;;;;;39.70;17.08;;;;;;;4.16;100.00;97805.72;5115513;27;20478;-78
2023/03/03 04:02:19;;;;;;;34.70;15.88;;;;;;;4.12;100.00;97808.53;5110691;27;20068;-79
2023/03/03 04:04:44;;;;;;;41.03;16.52;;;;;;;4.02;100.00;97807.94;5132206;27;20466;-77
2023/03/03 04:07:10;;;;;;;46.75;17.92;;;;;;;4.13;100.00;97818.19;5097930;27;20113;-77
2023/03/03 04:09:35;;;;;;;47.65;17.77;;;;;;;4.20;100.00;97817.06;5120976;27;20470;-77
2023/03/03 04:12:01;;;;;;;48.97;18.83;;;;;;;4.24;100.00;97813.44;5114182;27;20050;-77
2023/03/03 04:14:26;;;;;;;67.38;26.67;;;;;;;4.31;100.00;97822.88;5102378;27;20084;-78
2023/03/03 04:16:52;;;;;;;56.35;23.23;;;;;;;4.31;100.00;97807.00;5115706;27;20434;-78
2023/03/03 04:19:17;;;;;;;43.53;17.95;;;;;;;4.20;100.00;97812.66;5125233;27;20027;-79
2023/03/03 04:21:43;;;;;;;54.63;19.30;;;;;;;4.19;100.00;97805.63;5143889;27;20061;-78
2023/03/03 04:24:08;;;;;;;56.15;22.63;;;;;;;4.26;100.00;97812.44;5106287;27;20023;-79
2023/03/03 04:26:34;;;;;;;49.85;19.40;;;;;;;4.26;100.00;97807.16;5103153;27;20031;-79
2023/03/03 04:29:00;;;;;;;56.55;19.13;;;;;;;4.22;100.00;97812.59;5129203;27;20113;-78
2023/03/03 04:31:27;;;;;;;50.10;18.48;;;;;;;4.16;100.00;97799.56;5111307;27;20031;-78
2023/03/03 04:33:52;;;;;;;56.83;19.63;;;;;;;4.11;100.00;97804.13;5111924;27;20035;-79
2023/03/03 04:36:19;;;;;;;46.55;17.52;;;;;;;4.11;100.00;97804.13;5114459;27;20087;-78
2023/03/03 04:38:45;;;;;;;48.85;18.48;;;;;;;4.16;100.00;97812.78;5134005;27;20019;-78
2023/03/03 04:41:11;;;;;;;47.38;17.58;;;;;;;4.18;100.00;97808.31;5122916;27;20093;-79
2023/03/03 04:43:37;;;;;;;53.38;19.67;;;;;;;4.24;100.00;97811.66;5097491;27;20019;-78
2023/03/03 04:46:03;;;;;;;48.22;17.73;;;;;;;4.18;100.00;97795.09;5105676;27;20051;-78
2023/03/03 04:48:29;;;;;;;46.97;17.60;;;;;;;4.19;100.00;97799.44;5108095;27;20065;-78
2023/03/03 04:50:54;;;;;;;44.88;19.63;;;;;;;4.20;100.00;97801.19;5131378;27;20023;-79
2023/03/03 04:53:20;;;;;;;51.88;20.48;;;;;;;4.11;100.00;97807.66;5099814;27;20046;-78
2023/03/03 04:55:46;;;;;;;48.83;20.25;;;;;;;4.13;100.00;97803.16;5104266;27;20064;-78
2023/03/03 04:58:11;;;;;;;52.03;19.95;;;;;;;4.19;100.00;97817.97;5113588;27;20034;-78
2023/03/03 05:00:37;;;;;;;46.42;19.60;;;;;;;4.23;100.00;97822.28;5109161;27;20087;-79
2023/03/03 05:03:03;;;;;;;46.72;17.65;;;;;;;4.20;100.00;97803.84;5130417;27;20031;-78
2023/03/03 05:05:29;;;;;;;51.47;20.05;;;;;;;4.14;100.00;97810.19;5114262;27;20023;-78
2023/03/03 05:07:54;;;;;;;53.35;18.65;;;;;;;4.16;100.00;97816.31;5119232;27;20111;-78
2023/03/03 05:10:20;;;;;;;50.22;18.75;;;;;;;4.15;100.00;97819.84;5123347;27;20417;-78
2023/03/03 05:12:45;;;;;;;48.58;17.38;;;;;;;4.15;100.00;97811.06;5135579;27;20031;-78
2023/03/03 05:15:11;;;;;;;46.75;19.95;;;;;;;4.24;100.00;97818.72;5114077;27;20114;-78
2023/03/03 05:17:36;;;;;;;49.05;19.40;;;;;;;4.32;100.00;97822.84;5097136;27;20027;-78
2023/03/03 05:20:04;;;;;;;51.40;18.05;;;;;;;4.40;100.00;97825.22;5096550;27;20030;-78
2023/03/03 05:22:30;;;;;;;52.80;20.92;;;;;;;4.40;100.00;97819.09;5098061;27;20047;-78
2023/03/03 05:24:56;;;;;;;57.08;20.30;;;;;;;4.41;100.00;97819.00;5130891;27;20535;-78
2023/03/03 05:27:22;;;;;;;48.05;19.33;;;;;;;4.27;100.00;97813.31;5129578;27;20034;-78
2023/03/03 05:29:47;;;;;;;56.33;19.65;;;;;;;4.30;100.00;97818.50;5113738;28;20027;-78
2023/03/03 05:32:13;;;;;;;51.05;19.60;;;;;;;4.26;100.00;97814.22;5114543;28;20026;-78
2023/03/03 05:34:38;;;;;;;51.35;19.13;;;;;;;4.19;100.00;97815.34;5125816;27;20110;-78
2023/03/03 05:37:05;;;;;;;57.97;21.85;;;;;;;4.15;100.00;97811.91;5103595;28;20019;-78
2023/03/03 05:39:32;;;;;;;54.10;21.40;;;;;;;4.17;100.00;97817.19;5130263;28;20122;-75
2023/03/03 05:41:59;;;;;;;49.05;17.50;;;;;;;4.09;100.00;97819.22;5104955;28;20030;-79
2023/03/03 05:44:25;;;;;;;52.10;19.10;;;;;;;3.95;100.00;97817.00;5130593;27;20475;-79
2023/03/03 05:46:50;;;;;;;58.95;22.95;;;;;;;4.03;100.00;97830.00;5100933;28;20467;-79
2023/03/03 05:49:16;;;;;;;54.10;22.52;;;;;;;4.16;100.00;97836.59;5104989;28;20030;-77
2023/03/03 05:51:42;;;;;;;56.60;22.48;;;;;;;4.25;100.00;97831.88;5107205;28;20039;-78
2023/03/03 05:54:07;;;;;;;47.50;18.25;;;;;;;4.36;100.00;97835.06;5099841;28;20387;-78
2023/03/03 05:56:33;;;;;;;53.50;20.80;;;;;;;4.27;100.00;97824.78;5097949;28;20034;-78
2023/03/03 05:58:58;;;;;;;65.53;24.58;;;;;;;4.26;100.00;97832.75;5122872;28;20038;-81
2023/03/03 06:01:24;;;;;;;72.68;26.42;;;;;;;4.37;100.00;97839.44;5108460;28;20025;-79
2023/03/03 06:03:49;;;;;;;64.72;22.45;;;;;;;4.41;100.00;97832.25;5109886;28;20109;-81
2023/03/03 06:06:15;;;;;;;52.30;18.73;;;;;;;4.40;100.00;97822.56;5109480;28;20123;-78
2023/03/03 06:08:41;;;;;;;51.70;19.35;;;;;;;4.42;100.00;97826.06;5099868;28;20074;-77
2023/03/03 06:11:07;;;;;;;53.60;21.73;;;;;;;4.54;100.00;97836.22;5132784;27;20055;-79
2023/03/03 06:13:32;;;;;;;52.33;20.90;;;;;;;4.56;100.00;97831.75;5112028;28;20027;-79
2023/03/03 06:15:58;;;;;;;54.90;22.73;;;;;;;4.62;100.00;97831.53;5106481;28;20043;-78
2023/03/03 06:18:23;;;;;;;54.33;20.75;;;;;;;4.69;100.00;97832.19;5096814;28;20106;-79
2023/03/03 06:20:53;;;;;;;49.83;20.27;;;;;;;4.71;100.00;97838.28;5112851;27;20033;-79
2023/03/03 06:23:19;;;;;;;45.17;15.88;;;;;;;4.66;100.00;97838.47;5128917;27;20110;-78
2023/03/03 06:26:09;;;;;;;46.80;15.98;;;;;;;4.73;100.00;97834.69;5119110;28;20027;-79
2023/03/03 06:28:52;;;;;;;36.50;13.52;;;;;;;4.57;100.00;97801.69;5096110;28;20566;-81
2023/03/03 06:31:18;;;;;;;38.17;15.35;;;;;;;4.74;100.00;97814.34;5098380;28;20043;-81
2023/03/03 06:33:44;;;;;;;48.95;20.20;;;;;;;4.72;100.00;97816.19;5104798;28;20109;-79
2023/03/03 06:36:09;;;;;;;45.72;17.55;;;;;;;4.83;100.00;97814.91;5108869;28;20031;-79
2023/03/03 06:38:35;;;;;;;58.50;20.83;;;;;;;4.92;100.00;97816.38;5111140;28;20023;-81
2023/03/03 06:41:03;;;;;;;43.90;18.33;;;;;;;4.96;100.00;97820.63;5129058;27;20504;-81
2023/03/03 06:43:28;;;;;;;45.28;19.15;;;;;;;4.91;100.00;97806.69;5102447;28;20022;-80
2023/03/03 06:45:54;;;;;;;37.05;16.85;;;;;;;4.92;100.00;97811.91;5106716;27;20027;-80
2023/03/03 06:48:19;;;;;;;34.63;16.05;;;;;;;4.99;100.00;97798.44;5120359;27;20064;-81
2023/03/03 06:50:45;;;;;;;44.70;18.35;;;;;;;5.01;100.00;97799.28;5099230;27;20023;-81
2023/03/03 06:53:13;;;;;;;37.05;15.77;;;;;;;5.07;100.00;97801.72;5099096;27;20540;-79
2023/03/03 06:55:39;;;;;;;36.13;15.60;;;;;;;5.05;100.00;97792.94;5097519;27;20023;-79
2023/03/03 06:58:14;;;;;;;38.47;16.25;;;;;;;5.16;100.00;97801.38;5104411;27;20039;-79
2023/03/03 07:00:42;;;;;;;43.75;18.23;;;;;;;5.06;100.00;97787.59;5098336;27;20030;-80
2023/03/03 07:03:15;;;;;;;39.78;15.32;;;;;;;4.92;100.00;97782.78;5110048;27;20039;-79
2023/03/03 07:05:41;;;;;;;45.22;21.00;;;;;;;4.89;100.00;97782.88;5113061;27;20046;-79
2023/03/03 07:08:22;;;;;;;46.38;18.88;;;;;;;4.92;100.00;97782.78;5108578;27;20172;-81
2023/03/03 07:10:48;;;;;;;33.40;14.88;;;;;;;5.04;100.00;97791.22;5108970;27;20027;-74
2023/03/03 07:13:21;;;;;;;40.47;15.30;;;;;;;5.06;100.00;97790.25;5098273;27;20038;-75
2023/03/03 07:15:47;;;;;;;;;;;;;;;5.21;100.00;97796.75;5105221;27;20043;-74
2023/03/03 07:18:31;;;;;;;38.03;16.83;;;;;;;5.21;100.00;97788.81;5119634;27;19961;-75
2023/03/03 07:20:57;;;;;;;35.20;15.32;;;;;;;5.16;100.00;97767.78;5122127;27;20057;-74
2023/03/03 07:23:28;;;;;;;42.80;15.90;;;;;;;5.07;100.00;97754.00;5119646;27;20118;-76
2023/03/03 07:25:53;;;;;;;40.78;15.07;;;;;;;4.98;100.00;97754.34;5104117;27;20023;-74
2023/03/03 07:28:23;;;;;;;37.67;15.45;;;;;;;5.12;100.00;97762.63;5143098;27;20479;-75
2023/03/03 07:30:49;;;;;;;39.72;16.45;;;;;;;5.07;100.00;97754.00;5105376;27;20052;-74
2023/03/03 07:33:30;;;;;;;33.78;16.02;;;;;;;5.21;100.00;97763.16;5167699;27;20023;-79
2023/03/03 07:36:01;;;;;;;31.90;14.48;;;;;;;5.32;100.00;97760.97;5116067;27;20027;-83
2023/03/03 07:38:52;;;;;;;33.92;13.57;;;;;;;5.46;100.00;97741.88;5101471;27;20019;-81
2023/03/03 07:41:22;;;;;;;32.72;15.55;;;;;;;5.64;100.00;97738.50;5096370;28;20114;-80
2023/03/03 07:44:17;;;;;;;32.72;15.00;;;;;;;5.71;100.00;97716.13;5123682;27;20380;-79
2023/03/03 07:46:46;;;;;;;33.40;15.30;;;;;;;5.73;100.00;97701.00;5135839;27;20039;-77
2023/03/03 07:49:42;;;;;;;32.78;13.23;;;;;;;5.76;100.00;97702.66;5116311;27;20501;-77
2023/03/03 07:52:19;;;;;;;31.30;13.77;;;;;;;5.60;100.00;97694.44;5155678;27;20035;-77
2023/03/03 07:54:45;;;;;;;26.38;11.38;;;;;;;5.58;100.00;97693.66;5132248;27;20060;-77
2023/03/03 07:57:10;;;;;;;22.10;10.02;;;;;;;5.63;100.00;97698.78;5123132;27;20022;-77
2023/03/03 07:59:37;;;;;;;41.00;18.35;;;;;;;5.76;100.00;97690.25;5115220;27;20037;-78
2023/03/03 08:02:04;;;;;;;19.65;10.25;;;;;;;5.93;100.00;97682.50;5125077;27;20559;-76
2023/03/03 08:04:51;;;;;;;19.60;10.05;;;;;;;5.85;100.00;97670.44;5113818;27;20048;-75
2023/03/03 08:07:18;;;;;;;22.02;9.52;;;;;;;5.70;100.00;97656.00;5105161;27;20125;-75
2023/03/03 08:09:56;;;;;;;26.40;12.80;;;;;;;5.76;100.00;97660.19;5100363;27;20101;-81
2023/03/03 08:12:30;;;;;;;28.02;14.07;;;;;;;5.78;100.00;97656.53;5117813;27;20478;-81
2023/03/03 08:15:07;;;;;;;31.98;13.65;;;;;;;5.80;100.00;97654.72;5095661;27;20433;-81
2023/03/03 08:17:38;;;;;;;30.50;10.10;;;;;;;5.66;100.00;97638.47;5105353;27;20474;-83
2023/03/03 08:21:05;;;;;;;23.38;9.90;;;;;;;5.68;100.00;97639.28;5130306;27;20054;-81
2023/03/03 08:23:31;;;;;;;19.65;9.32;;;;;;;5.76;100.00;97631.88;5077748;28;20422;-82
2023/03/03 08:25:56;;;;;;;24.85;9.02;;;;;;;5.81;100.00;97621.94;5070635;28;20047;-82
2023/03/03 08:28:22;;;;;;;18.65;7.97;;;;;;;5.98;100.00;97624.78;5090066;28;20094;-82
2023/03/03 08:30:48;;;;;;;16.05;7.45;;;;;;;6.14;100.00;97606.41;5073053;28;20035;-82
2023/03/03 08:33:14;;;;;;;18.15;7.40;;;;;;;6.31;100.00;97601.19;5089923;28;20375;-82
2023/03/03 08:35:41;;;;;;;21.90;10.02;;;;;;;6.48;100.00;97587.16;5073022;28;20028;-82
2023/03/03 08:38:07;;;;;;;35.03;17.95;;;;;;;6.86;100.00;97593.41;5073832;28;20024;-82
2023/03/03 08:40:33;;;;;;;19.02;8.63;;;;;;;6.76;100.00;97568.16;5073565;28;20380;-82
2023/03/03 08:42:58;;;;;;;18.65;9.32;;;;;;;6.96;100.00;97574.28;5088952;28;20513;-82
2023/03/03 08:45:25;;;;;;;20.45;9.50;;;;;;;6.88;100.00;97554.31;5071629;28;20031;-81
2023/03/03 08:47:50;;;;;;;20.83;10.45;;;;;;;6.83;100.00;97551.00;5071418;28;20030;-82
2023/03/03 08:50:16;;;;;;;21.75;10.18;;;;;;;6.71;100.00;97568.38;5088459;28;20352;-81
2023/03/03 08:52:42;;;;;;;21.88;10.05;;;;;;;6.68;100.00;97549.91;5087965;28;20040;-82
2023/03/03 08:56:07;;;;;;;21.00;10.93;;;;;;;6.42;100.00;97499.78;5089181;28;20040;-82
2023/03/03 08:58:32;;;;;;;20.23;10.50;;;;;;;6.60;100.00;97533.47;5034295;28;20731;-81
2023/03/03 09:00:58;;;;;;;19.48;9.40;;;;;;;6.84;100.00;97548.25;5042542;28;20122;-82
2023/03/03 09:03:23;;;;;;;21.48;10.45;;;;;;;7.00;100.00;97559.91;5071494;28;20035;-83
2023/03/03 09:05:49;;;;;;;22.55;11.93;;;;;;;7.19;100.00;97553.69;5071928;28;20079;-82
2023/03/03 09:08:14;;;;;;;23.65;12.02;;;;;;;7.33;100.00;97540.56;5070679;28;20035;-83
2023/03/03 09:10:40;;;;;;;23.13;12.32;;;;;;;7.41;100.00;97517.13;5072125;28;20023;-82
2023/03/03 09:13:15;;;;;;;22.77;12.00;;;;;;;7.69;100.00;97520.09;5072669;28;20028;-82
2023/03/03 09:15:41;;;;;;;22.10;11.85;;;;;;;7.76;100.00;97507.34;5088705;28;20024;-81
2023/03/03 09:18:26;;;;;;;21.48;11.38;;;;;;;7.97;100.00;97509.75;5072259;28;20548;-81
2023/03/03 09:20:52;;;;;;;22.52;10.68;;;;;;;7.70;100.00;97492.53;5072984;28;20073;-81
2023/03/03 09:23:30;;;;;;;26.45;11.63;;;;;;;7.83;100.00;97509.63;5089074;28;20427;-82
2023/03/03 09:25:57;;;;;;;20.80;10.75;;;;;;;7.97;100.00;97485.78;5088687;28;20393;-82
2023/03/03 09:28:31;;;;;;;26.15;10.90;;;;;;;8.39;100.00;97477.34;5071864;28;20543;-82
2023/03/03 09:30:59;;;;;;;20.83;9.85;;;;;;;8.69;100.00;97469.47;5071779;28;20031;-82
2023/03/03 09:33:32;;;;;;;14.95;8.75;;;;;;;8.69;100.00;97448.13;5071400;28;20507;-82
2023/03/03 09:36:11;;;;;;;17.38;9.40;;;;;;;8.94;100.00;97445.81;5088048;28;20035;-81
2023/03/03 09:38:42;;;;;;;15.40;8.95;;;;;;;9.19;100.00;97446.13;5070895;28;20051;-82
2023/03/03 09:41:29;;;;;;;14.65;8.40;;;;;;;9.55;100.00;97440.41;5087884;28;20032;-82
2023/03/03 09:44:00;;;;;;;18.80;8.73;;;;;;;9.52;100.00;97429.06;5087545;28;20555;-82
2023/03/03 09:46:49;;;;;;;21.80;9.57;;;;;;;9.14;100.00;97405.47;5087622;28;20055;-82
2023/03/03 09:49:23;;;;;;;18.75;10.15;;;;;;;9.54;100.00;97435.16;5087798;28;20411;-82
2023/03/03 09:52:11;;;;;;;15.93;9.65;;;;;;;9.56;100.00;97412.78;5086705;28;20169;-82
2023/03/03 09:54:55;;;;;;;14.15;8.52;;;;;;;9.97;100.00;97418.25;5070526;28;20557;-82
2023/03/03 09:57:48;;;;;;;16.80;9.55;;;;;;;9.80;100.00;97407.75;5083776;28;20035;-81
2023/03/03 10:00:44;;;;;;;21.30;9.73;;;;;;;9.83;100.00;97396.88;5082671;28;20026;-82
2023/03/03 10:03:38;;;;;;;15.13;7.95;;;;;;;10.07;100.00;97390.00;5087978;28;20444;-81
2023/03/03 10:06:12;;;;;;;14.05;6.80;;;;;;;9.59;100.00;97367.19;5087733;28;20523;-83
2023/03/03 10:08:41;;;;;;;17.15;8.63;;;;;;;9.36;100.00;97381.06;5089143;28;20028;-82
2023/03/03 10:11:40;;;;;;;13.75;8.18;;;;;;;10.02;100.00;97392.13;5088387;28;20509;-83
2023/03/03 10:14:16;;;;;;;17.67;7.97;;;;;;;10.85;100.00;97383.22;5071035;28;20093;-82
2023/03/03 10:17:06;;;;;;;17.65;8.65;;;;;;;11.54;100.00;97366.91;5087877;28;20050;-81
2023/03/03 10:19:40;;;;;;;18.70;10.63;;;;;;;11.57;100.00;97361.34;5090241;28;20089;-81
2023/03/03 10:22:39;;;;;;;15.52;9.43;;;;;;;12.21;100.00;97352.34;5080113;28;20601;-81
2023/03/03 10:25:24;;;;;;;23.52;11.55;;;;;;;12.19;100.00;97354.28;5113041;27;20521;-82
2023/03/03 10:28:11;;;;;;;23.30;12.57;;;;;;;11.73;100.00;97345.09;5097104;27;20428;-82
2023/03/03 10:30:43;;;;;;;21.33;11.50;;;;;;;11.53;100.00;97341.09;5123974;27;20478;-81
2023/03/03 10:33:09;;;;;;;23.40;12.02;;;;;;;11.64;100.00;97340.34;5094807;28;20028;-82
2023/03/03 10:36:12;;;;;;;18.05;11.05;;;;;;;11.33;100.00;97342.47;5111567;28;20031;-83
2023/03/03 10:38:56;;;;;;;;;;;;;;;10.01;100.00;97346.78;5123548;27;20032;-82
2023/03/03 10:41:30;;;;;;;20.13;11.23;;;;;;;10.21;100.00;97360.63;5127628;27;19925;-82
2023/03/03 10:44:14;;;;;;;20.08;11.18;;;;;;;10.17;100.00;97343.09;5124642;27;20031;-82
2023/03/03 10:47:00;;;;;;;21.48;11.93;;;;;;;10.19;100.00;97359.88;5131531;27;20525;-82
2023/03/03 10:49:38;;;;;;;19.42;11.15;;;;;;;10.94;100.00;97360.34;5131891;27;20057;-83
2023/03/03 10:52:18;;;;;;;25.77;13.55;;;;;;;11.06;100.00;97341.66;5102766;28;20124;-83
2023/03/03 10:55:11;;;;;;;20.65;11.93;;;;;;;11.31;100.00;97332.81;5129232;27;20402;-83
2023/03/03 10:57:45;;;;;;;21.63;12.68;;;;;;;11.36;100.00;97326.19;5132670;27;20410;-83
2023/03/03 11:00:34;;;;;;;21.70;12.65;;;;;;;11.43;100.00;97311.41;5110034;28;20039;-83
2023/03/03 11:03:08;;;;;;;24.50;12.43;;;;;;;10.89;100.00;97320.50;5113828;27;20412;-83
2023/03/03 11:05:47;;;;;;;25.65;14.30;;;;;;;10.29;100.00;97312.03;5110910;28;20023;-83
2023/03/03 11:08:13;;;;;;;26.33;14.32;;;;;;;10.05;100.00;97327.78;5122403;27;20031;-83
2023/03/03 11:11:02;;;;;;;20.00;12.02;;;;;;;10.20;100.00;97340.22;5113485;27;20072;-83
2023/03/03 11:13:39;;;;;;;19.08;11.13;;;;;;;10.31;100.00;97328.81;5145281;27;20100;-83
2023/03/03 11:16:15;;;;;;;23.30;12.18;;;;;;;10.00;100.00;97316.53;5097217;27;20156;-83
2023/03/03 11:19:03;;;;;;;24.40;13.30;;;;;;;10.02;100.00;97321.78;5113500;27;20031;-82
2023/03/03 11:21:45;;;;;;;24.42;12.82;;;;;;;10.16;100.00;97309.28;5096338;27;20088;-82
2023/03/03 11:24:33;;;;;;;23.30;12.63;;;;;;;10.29;100.00;97330.75;5147513;27;20027;-83
2023/03/03 11:27:17;;;;;;;23.08;12.95;;;;;;;10.40;100.00;97317.53;5120492;27;20046;-83
2023/03/03 11:29:47;;;;;;;21.23;12.07;;;;;;;10.02;100.00;97295.06;5116431;27;20029;-83
2023/03/03 11:32:31;;;;;;;22.00;12.50;;;;;;;9.84;100.00;97304.25;5130353;27;20084;-83
2023/03/03 11:35:00;;;;;;;17.33;10.52;;;;;;;9.79;100.00;97304.53;5116415;27;20091;-83